STS Fryderyk Chopin — SPS2298 — position and weather

sailwx.info

Track history (hours):
 
Tides and Currents Weather Stations Pressure Air Temp Water Temp Dewpoint Dewpoint Depression Visibility Wind Speed Wind Dir Waves Ship Positions

STS Fryderyk Chopin (Poland)

Ship's website: http://www.fryderykchopin.pl/

Last reported at 2017-May-23 07:52 UTC. Time now 2017-May-23 08:59 UTC.
Position N 42°09' E 006°38'.

Length 44 m; draft 4.2 m.

Type: Sailing vessel. MMSI: 261000290.

Date/timePositionNaut miles runAvg speedWind from/ knotsBaromVisibWave heightAir tempDewpointWater temp
2017-May-23 07:52N 42°09' E 006°38'1 2.4
2017-May-23 07:30N 42°10' E 006°39'3 4.0
2017-May-23 06:47N 42°13' E 006°40'1 4.7
2017-May-23 06:29N 42°14' E 006°41'2 5.0
2017-May-23 06:00N 42°16' E 006°41'2 4.3
2017-May-23 05:28N 42°19' E 006°41'2 4.1
2017-May-23 05:00N 42°21' E 006°41'2 3.6
2017-May-23 04:30N 42°22' E 006°42'2 4.0
2017-May-23 03:54N 42°25' E 006°42'2 4.7
2017-May-23 03:30N 42°27' E 006°43'3 5.0
2017-May-23 02:59N 42°29' E 006°43'2 4.7
2017-May-23 02:29N 42°31' E 006°43'2 4.4
2017-May-23 01:59N 42°34' E 006°44'2 4.7
2017-May-23 01:30N 42°36' E 006°44'3 5.5
2017-May-23 01:00N 42°39' E 006°45'3 4.6
2017-May-23 00:24N 42°41' E 006°45'2 4.6
2017-May-22 23:52N 42°44' E 006°46'3 4.7
2017-May-22 23:15N 42°46' E 006°47'1 4.4
2017-May-22 22:58N 42°48' E 006°47'2 4.5
2017-May-22 22:26N 42°50' E 006°48'2 5.3
2017-May-22 21:59N 42°52' E 006°49'3 5.8
2017-May-22 21:31N 42°55' E 006°49'3 6.6
2017-May-22 21:00N 42°58' E 006°50'5 7.5
2017-May-22 20:24N 43°03' E 006°50'3 6.6
2017-May-22 19:56N 43°06' E 006°49'3 7.2
2017-May-22 19:30N 43°09' E 006°48'4 7.2
2017-May-22 19:00N 43°12' E 006°47'3 6.8
2017-May-22 18:30N 43°15' E 006°44'2 4.7
2017-May-22 18:00N 43°17' E 006°42'3 0.3
2017-May-22 07:11N 43°16' E 006°37'0 0.0
2017-May-22 06:49N 43°16' E 006°37'0 0.2
2017-May-22 06:30N 43°16' E 006°37'3 5.0
2017-May-22 06:00N 43°17' E 006°41'4 5.8
2017-May-22 05:23N 43°16' E 006°45'4 5.8
2017-May-22 04:44N 43°15' E 006°50'2 5.8
2017-May-22 04:28N 43°14' E 006°52'9 5.9
2017-May-22 02:53N 43°12' E 007°04'2 6.1
2017-May-22 02:30N 43°11' E 007°07'2 4.4
2017-May-22 02:00N 43°10' E 007°10'1 1.2
2017-May-22 01:30N 43°10' E 007°11'1 1.2
2017-May-22 01:00N 43°10' E 007°12'0 0.8
2017-May-22 00:28N 43°10' E 007°12'0 1.0
2017-May-22 00:00N 43°10' E 007°12'1 1.3
2017-May-21 23:29N 43°11' E 007°12'1 1.6
2017-May-21 22:58N 43°11' E 007°12'2 1.9
2017-May-21 22:07N 43°13' E 007°13'0 2.5
2017-May-21 22:00N 43°13' E 007°13'1 2.5
2017-May-21 21:30N 43°15' E 007°13'1 1.3
2017-May-21 21:00N 43°15' E 007°13'1 1.1
2017-May-21 20:30N 43°16' E 007°12'1 2.5
2017-May-21 20:00N 43°17' E 007°13'2 3.3
2017-May-21 19:30N 43°19' E 007°13'2 3.3
2017-May-21 19:00N 43°20' E 007°13'1 2.0
2017-May-21 18:30N 43°21' E 007°13'1 1.9
2017-May-21 18:00N 43°22' E 007°13'1 1.8
2017-May-21 17:30N 43°23' E 007°13'1 1.8
2017-May-21 17:00N 43°24' E 007°13'1 1.3
2017-May-21 16:30N 43°25' E 007°13'0 0.8
2017-May-21 16:00N 43°25' E 007°13'0 0.7
2017-May-21 15:30N 43°25' E 007°13'1 1.3
2017-May-21 15:00N 43°26' E 007°13'2 2.1
2017-May-21 14:00N 43°28' E 007°14'3 6.0
2017-May-21 13:30N 43°31' E 007°15'3 6.0
2017-May-21 13:00N 43°34' E 007°16'3 5.6
2017-May-21 12:30N 43°37' E 007°17'3 5.9
2017-May-21 12:00N 43°39' E 007°18'3 0.9
2017-May-21 09:15N 43°42' E 007°19'0 0.0
2017-May-21 08:54N 43°42' E 007°19'0 0.0
2017-May-20 23:15N 43°42' E 007°19'0 0.0
2017-May-20 22:57N 43°42' E 007°19'0 0.0
2017-May-20 22:30N 43°42' E 007°19'0 0.0
2017-May-20 20:36N 43°42' E 007°19'0 0.0
2017-May-20 19:24N 43°42' E 007°19'0 0.0
2017-May-20 18:59N 43°42' E 007°19'0 0.0
2017-May-20 18:23N 43°42' E 007°19'0 0.0
2017-May-20 14:33N 43°42' E 007°19'0 0.0
2017-May-19 17:05N 43°42' E 007°19'0 0.0
2017-May-19 06:30N 43°42' E 007°19'1 2.6
2017-May-19 06:00N 43°41' E 007°19'2 4.2
2017-May-19 05:30N 43°39' E 007°21'2 4.5
2017-May-19 05:00N 43°37' E 007°22'2 4.1
2017-May-19 04:30N 43°35' E 007°24'2 4.3
2017-May-19 04:00N 43°33' E 007°25'2 4.3
2017-May-19 03:30N 43°32' E 007°27'3 5.1
2017-May-19 03:00N 43°30' E 007°29'3 5.0
2017-May-19 02:27N 43°27' E 007°32'2 5.0
2017-May-19 02:00N 43°26' E 007°34'3 5.5
2017-May-19 01:30N 43°24' E 007°37'3 6.3
2017-May-19 01:00N 43°22' E 007°40'3 6.1
2017-May-19 00:30N 43°19' E 007°42'3 6.1
2017-May-19 00:00N 43°17' E 007°45'1 1.2
2017-May-18 23:30N 43°17' E 007°46'0 0.7
2017-May-18 23:01N 43°17' E 007°46'0 0.5
2017-May-18 22:26N 43°18' E 007°46'1 1.7
2017-May-18 21:59N 43°17' E 007°47'1 1.5
2017-May-18 21:31N 43°17' E 007°48'1 1.6
2017-May-18 21:00N 43°16' E 007°49'1 1.7
2017-May-18 20:30N 43°15' E 007°49'1 2.2
2017-May-18 20:00N 43°15' E 007°50'2 3.3
2017-May-18 19:30N 43°13' E 007°52'3 3.9
2017-May-18 18:46N 43°12' E 007°55'2 2.9
2017-May-18 18:13N 43°10' E 007°56'1 2.7
2017-May-18 17:54N 43°10' E 007°57'2 2.6
2017-May-18 17:17N 43°09' E 007°59'1 2.8
2017-May-18 17:00N 43°08' E 007°60'2 3.5
2017-May-18 16:30N 43°07' E 008°02'2 3.2
2017-May-18 16:00N 43°06' E 008°03'2 3.7
2017-May-18 15:30N 43°05' E 008°05'2 3.4
2017-May-18 15:00N 43°04' E 008°07'3 3.5
2017-May-18 14:00N 43°01' E 008°10'2 4.0
2017-May-18 13:30N 42°60' E 008°12'2 4.5
2017-May-18 12:59N 42°58' E 008°14'3 6.0
2017-May-18 12:31N 42°56' E 008°17'3 6.0
2017-May-18 12:00N 42°54' E 008°20'2 3.5
2017-May-18 11:30N 42°54' E 008°23'1 2.8
2017-May-18 11:00N 42°53' E 008°24'2 5.0
2017-May-18 10:30N 42°51' E 008°26'3 6.7
2017-May-18 10:00N 42°48' E 008°29'3 6.6
2017-May-18 09:29N 42°46' E 008°32'80 1.8
2017-May-16 14:17N 41°52' E 007°12'6 6.3
2017-May-16 13:24N 41°49' E 007°06'3 6.5
2017-May-16 12:59N 41°48' E 007°03'3 6.5
2017-May-16 12:30N 41°46' E 006°60'3 6.6
2017-May-16 11:59N 41°44' E 006°56'3 6.6
2017-May-16 11:30N 41°42' E 006°52'6 6.2
2017-May-16 10:32N 41°39' E 006°46'0 6.2
2017-May-16 10:30N 41°39' E 006°45'3 6.3
2017-May-16 09:59N 41°37' E 006°42'3 6.3
2017-May-16 09:30N 41°35' E 006°38'14 6.7
2017-May-16 07:23N 41°27' E 006°23'3 6.8
2017-May-16 06:57N 41°25' E 006°20'111 4.4
2017-May-15 05:32N 40°12' E 004°30'0 2.0
2017-May-15 05:30N 40°12' E 004°30'1 2.2
2017-May-15 04:59N 40°12' E 004°28'1 2.1
2017-May-15 04:30N 40°12' E 004°27'1 1.7
2017-May-15 04:00N 40°12' E 004°26'1 1.3
2017-May-15 03:29N 40°12' E 004°25'1 2.1
2017-May-15 03:00N 40°12' E 004°24'1 2.1
2017-May-15 02:29N 40°11' E 004°22'1 1.8
2017-May-15 01:57N 40°11' E 004°21'1 2.2
2017-May-15 01:30N 40°10' E 004°20'1 2.3
2017-May-15 00:54N 40°10' E 004°19'1 2.5
2017-May-15 00:30N 40°09' E 004°17'1 1.6
2017-May-14 23:54N 40°09' E 004°16'1 1.1
2017-May-14 23:15N 40°09' E 004°15'0 1.1
2017-May-14 22:53N 40°09' E 004°15'0 0.8
2017-May-14 22:30N 40°09' E 004°14'0 0.8
2017-May-14 22:00N 40°09' E 004°14'0 0.8
2017-May-14 21:30N 40°09' E 004°13'1 0.4
2017-May-14 19:52N 40°09' E 004°13'1 1.0
2017-May-14 18:43N 40°09' E 004°11'0 1.4
2017-May-14 18:28N 40°09' E 004°11'1 1.4
2017-May-14 17:59N 40°09' E 004°10'0 0.8
2017-May-14 17:30N 40°09' E 004°09'47 2.0
2017-May-13 17:49N 39°50' E 003°13'2 5.3
2017-May-13 17:30N 39°50' E 003°11'2 2.8
2017-May-13 16:45N 39°50' E 003°08'0 0.0
2017-May-13 16:09N 39°50' E 003°08'0 0.0
2017-May-13 13:27N 39°50' E 003°08'0 0.0
2017-May-13 13:00N 39°50' E 003°08'0 0.0
2017-May-13 12:12N 39°50' E 003°08'0 0.0
2017-May-13 11:51N 39°50' E 003°08'0 0.0
2017-May-13 11:21N 39°50' E 003°08'0 0.0
2017-May-13 10:57N 39°50' E 003°08'0 0.0
2017-May-13 10:27N 39°50' E 003°08'0 0.0
2017-May-13 09:51N 39°50' E 003°08'  
Track history (hours):
 
Tides and Currents Weather Stations Pressure Air Temp Water Temp Dewpoint Dewpoint Depression Visibility Wind Speed Wind Dir Waves Ship Positions

STS Fryderyk Chopin (Poland)

Ship's website: http://www.fryderykchopin.pl/

Last reported at 2017-May-23 07:52 UTC. Time now 2017-May-23 08:59 UTC.
Position N 42°09' E 006°38'.

Length 44 m; draft 4.2 m.

Type: Sailing vessel. MMSI: 261000290.

Date/timePositionNaut miles runAvg speedWind from/ knotsBaromVisibWave heightAir tempDewpointWater temp
2017-May-23 07:52N 42°09' E 006°38'1 2.4
2017-May-23 07:30N 42°10' E 006°39'3 4.0
2017-May-23 06:47N 42°13' E 006°40'1 4.7
2017-May-23 06:29N 42°14' E 006°41'2 5.0
2017-May-23 06:00N 42°16' E 006°41'2 4.3
2017-May-23 05:28N 42°19' E 006°41'2 4.1
2017-May-23 05:00N 42°21' E 006°41'2 3.6
2017-May-23 04:30N 42°22' E 006°42'2 4.0
2017-May-23 03:54N 42°25' E 006°42'2 4.7
2017-May-23 03:30N 42°27' E 006°43'3 5.0
2017-May-23 02:59N 42°29' E 006°43'2 4.7
2017-May-23 02:29N 42°31' E 006°43'2 4.4
2017-May-23 01:59N 42°34' E 006°44'2 4.7
2017-May-23 01:30N 42°36' E 006°44'3 5.5
2017-May-23 01:00N 42°39' E 006°45'3 4.6
2017-May-23 00:24N 42°41' E 006°45'2 4.6
2017-May-22 23:52N 42°44' E 006°46'3 4.7
2017-May-22 23:15N 42°46' E 006°47'1 4.4
2017-May-22 22:58N 42°48' E 006°47'2 4.5
2017-May-22 22:26N 42°50' E 006°48'2 5.3
2017-May-22 21:59N 42°52' E 006°49'3 5.8
2017-May-22 21:31N 42°55' E 006°49'3 6.6
2017-May-22 21:00N 42°58' E 006°50'5 7.5
2017-May-22 20:24N 43°03' E 006°50'3 6.6
2017-May-22 19:56N 43°06' E 006°49'3 7.2
2017-May-22 19:30N 43°09' E 006°48'4 7.2
2017-May-22 19:00N 43°12' E 006°47'3 6.8
2017-May-22 18:30N 43°15' E 006°44'2 4.7
2017-May-22 18:00N 43°17' E 006°42'3 0.3
2017-May-22 07:11N 43°16' E 006°37'0 0.0
2017-May-22 06:49N 43°16' E 006°37'0 0.2
2017-May-22 06:30N 43°16' E 006°37'3 5.0
2017-May-22 06:00N 43°17' E 006°41'4 5.8
2017-May-22 05:23N 43°16' E 006°45'4 5.8
2017-May-22 04:44N 43°15' E 006°50'2 5.8
2017-May-22 04:28N 43°14' E 006°52'9 5.9
2017-May-22 02:53N 43°12' E 007°04'2 6.1
2017-May-22 02:30N 43°11' E 007°07'2 4.4
2017-May-22 02:00N 43°10' E 007°10'1 1.2
2017-May-22 01:30N 43°10' E 007°11'1 1.2
2017-May-22 01:00N 43°10' E 007°12'0 0.8
2017-May-22 00:28N 43°10' E 007°12'0 1.0
2017-May-22 00:00N 43°10' E 007°12'1 1.3
2017-May-21 23:29N 43°11' E 007°12'1 1.6
2017-May-21 22:58N 43°11' E 007°12'2 1.9
2017-May-21 22:07N 43°13' E 007°13'0 2.5
2017-May-21 22:00N 43°13' E 007°13'1 2.5
2017-May-21 21:30N 43°15' E 007°13'1 1.3
2017-May-21 21:00N 43°15' E 007°13'1 1.1
2017-May-21 20:30N 43°16' E 007°12'1 2.5
2017-May-21 20:00N 43°17' E 007°13'2 3.3
2017-May-21 19:30N 43°19' E 007°13'2 3.3
2017-May-21 19:00N 43°20' E 007°13'1 2.0
2017-May-21 18:30N 43°21' E 007°13'1 1.9
2017-May-21 18:00N 43°22' E 007°13'1 1.8
2017-May-21 17:30N 43°23' E 007°13'1 1.8
2017-May-21 17:00N 43°24' E 007°13'1 1.3
2017-May-21 16:30N 43°25' E 007°13'0 0.8
2017-May-21 16:00N 43°25' E 007°13'0 0.7
2017-May-21 15:30N 43°25' E 007°13'1 1.3
2017-May-21 15:00N 43°26' E 007°13'2 2.1
2017-May-21 14:00N 43°28' E 007°14'3 6.0
2017-May-21 13:30N 43°31' E 007°15'3 6.0
2017-May-21 13:00N 43°34' E 007°16'3 5.6
2017-May-21 12:30N 43°37' E 007°17'3 5.9
2017-May-21 12:00N 43°39' E 007°18'3 0.9
2017-May-21 09:15N 43°42' E 007°19'0 0.0
2017-May-21 08:54N 43°42' E 007°19'0 0.0
2017-May-20 23:15N 43°42' E 007°19'0 0.0
2017-May-20 22:57N 43°42' E 007°19'0 0.0
2017-May-20 22:30N 43°42' E 007°19'0 0.0
2017-May-20 20:36N 43°42' E 007°19'0 0.0
2017-May-20 19:24N 43°42' E 007°19'0 0.0
2017-May-20 18:59N 43°42' E 007°19'0 0.0
2017-May-20 18:23N 43°42' E 007°19'0 0.0
2017-May-20 14:33N 43°42' E 007°19'0 0.0
2017-May-19 17:05N 43°42' E 007°19'0 0.0
2017-May-19 06:30N 43°42' E 007°19'1 2.6
2017-May-19 06:00N 43°41' E 007°19'2 4.2
2017-May-19 05:30N 43°39' E 007°21'2 4.5
2017-May-19 05:00N 43°37' E 007°22'2 4.1
2017-May-19 04:30N 43°35' E 007°24'2 4.3
2017-May-19 04:00N 43°33' E 007°25'2 4.3
2017-May-19 03:30N 43°32' E 007°27'3 5.1
2017-May-19 03:00N 43°30' E 007°29'3 5.0
2017-May-19 02:27N 43°27' E 007°32'2 5.0
2017-May-19 02:00N 43°26' E 007°34'3 5.5
2017-May-19 01:30N 43°24' E 007°37'3 6.3
2017-May-19 01:00N 43°22' E 007°40'3 6.1
2017-May-19 00:30N 43°19' E 007°42'3 6.1
2017-May-19 00:00N 43°17' E 007°45'1 1.2
2017-May-18 23:30N 43°17' E 007°46'0 0.7
2017-May-18 23:01N 43°17' E 007°46'0 0.5
2017-May-18 22:26N 43°18' E 007°46'1 1.7
2017-May-18 21:59N 43°17' E 007°47'1 1.5
2017-May-18 21:31N 43°17' E 007°48'1 1.6
2017-May-18 21:00N 43°16' E 007°49'1 1.7
2017-May-18 20:30N 43°15' E 007°49'1 2.2
2017-May-18 20:00N 43°15' E 007°50'2 3.3
2017-May-18 19:30N 43°13' E 007°52'3 3.9
2017-May-18 18:46N 43°12' E 007°55'2 2.9
2017-May-18 18:13N 43°10' E 007°56'1 2.7
2017-May-18 17:54N 43°10' E 007°57'2 2.6
2017-May-18 17:17N 43°09' E 007°59'1 2.8
2017-May-18 17:00N 43°08' E 007°60'2 3.5
2017-May-18 16:30N 43°07' E 008°02'2 3.2
2017-May-18 16:00N 43°06' E 008°03'2 3.7
2017-May-18 15:30N 43°05' E 008°05'2 3.4
2017-May-18 15:00N 43°04' E 008°07'3 3.5
2017-May-18 14:00N 43°01' E 008°10'2 4.0
2017-May-18 13:30N 42°60' E 008°12'2 4.5
2017-May-18 12:59N 42°58' E 008°14'3 6.0
2017-May-18 12:31N 42°56' E 008°17'3 6.0
2017-May-18 12:00N 42°54' E 008°20'2 3.5
2017-May-18 11:30N 42°54' E 008°23'1 2.8
2017-May-18 11:00N 42°53' E 008°24'2 5.0
2017-May-18 10:30N 42°51' E 008°26'3 6.7
2017-May-18 10:00N 42°48' E 008°29'3 6.6
2017-May-18 09:29N 42°46' E 008°32'80 1.8
2017-May-16 14:17N 41°52' E 007°12'6 6.3
2017-May-16 13:24N 41°49' E 007°06'3 6.5
2017-May-16 12:59N 41°48' E 007°03'3 6.5
2017-May-16 12:30N 41°46' E 006°60'3 6.6
2017-May-16 11:59N 41°44' E 006°56'3 6.6
2017-May-16 11:30N 41°42' E 006°52'6 6.2
2017-May-16 10:32N 41°39' E 006°46'0 6.2
2017-May-16 10:30N 41°39' E 006°45'3 6.3
2017-May-16 09:59N 41°37' E 006°42'3 6.3
2017-May-16 09:30N 41°35' E 006°38'14 6.7
2017-May-16 07:23N 41°27' E 006°23'3 6.8
2017-May-16 06:57N 41°25' E 006°20'111 4.4
2017-May-15 05:32N 40°12' E 004°30'0 2.0
2017-May-15 05:30N 40°12' E 004°30'1 2.2
2017-May-15 04:59N 40°12' E 004°28'1 2.1
2017-May-15 04:30N 40°12' E 004°27'1 1.7
2017-May-15 04:00N 40°12' E 004°26'1 1.3
2017-May-15 03:29N 40°12' E 004°25'1 2.1
2017-May-15 03:00N 40°12' E 004°24'1 2.1
2017-May-15 02:29N 40°11' E 004°22'1 1.8
2017-May-15 01:57N 40°11' E 004°21'1 2.2
2017-May-15 01:30N 40°10' E 004°20'1 2.3
2017-May-15 00:54N 40°10' E 004°19'1 2.5
2017-May-15 00:30N 40°09' E 004°17'1 1.6
2017-May-14 23:54N 40°09' E 004°16'1 1.1
2017-May-14 23:15N 40°09' E 004°15'0 1.1
2017-May-14 22:53N 40°09' E 004°15'0 0.8
2017-May-14 22:30N 40°09' E 004°14'0 0.8
2017-May-14 22:00N 40°09' E 004°14'0 0.8
2017-May-14 21:30N 40°09' E 004°13'1 0.4
2017-May-14 19:52N 40°09' E 004°13'1 1.0
2017-May-14 18:43N 40°09' E 004°11'0 1.4
2017-May-14 18:28N 40°09' E 004°11'1 1.4
2017-May-14 17:59N 40°09' E 004°10'0 0.8
2017-May-14 17:30N 40°09' E 004°09'47 2.0
2017-May-13 17:49N 39°50' E 003°13'2 5.3
2017-May-13 17:30N 39°50' E 003°11'2 2.8
2017-May-13 16:45N 39°50' E 003°08'0 0.0
2017-May-13 16:09N 39°50' E 003°08'0 0.0
2017-May-13 13:27N 39°50' E 003°08'0 0.0
2017-May-13 13:00N 39°50' E 003°08'0 0.0
2017-May-13 12:12N 39°50' E 003°08'0 0.0
2017-May-13 11:51N 39°50' E 003°08'0 0.0
2017-May-13 11:21N 39°50' E 003°08'0 0.0
2017-May-13 10:57N 39°50' E 003°08'0 0.0
2017-May-13 10:27N 39°50' E 003°08'0 0.0
2017-May-13 09:51N 39°50' E 003°08'  

Dump ship's entire track history